Station Historical Data
Daily Summary for March 14, 2012 Units:  Both    English   Metric
« Previous Day
Next Day »
Daily Weekly Monthly Yearly Custom
  High: Low: Average:
Temperature: 80.6 °F /  27 °C 56.2 °F /  13.4 °C 67 °F /  19.4 °C
Dew Point: 66.6 °F /  19.2 °C 54.8 °F /  12.7 °C 60.7 °F /  15.9 °C
Humidity: 95% 53% 81%
Wind Speed: 10.0mph /  16.1km/h - 2.9mph /  4.7km/h
Wind Gust: 16.0mph /  25.7km/h - -
Wind- - SSE
Pressure: 30.22 in /  1023.2 hPa 30.09 in /  1018.8 hPa -
Precipitation: 0.04 in /  1.02 mm    
Historical Graphs
 
 
Tabular Data for March 14, 2012
Time Temperature Dew Point Pressure Wind Wind Speed Wind Gust Humidity Rainfall Rate (Hourly) Conditions
00:00 63.9 °F /  17.7 °C 57.6 °F /  14.2 °C 30.14in /  1020.5hPa SSE 2.0mph /  3.2km/h 3.0mph /  4.8km/h 80% 0.00in /  0mm
00:05 64.0 °F /  17.8 °C 57.7 °F /  14.3 °C 30.14in /  1020.5hPa South 2.0mph /  3.2km/h 3.0mph /  4.8km/h 80% 0.00in /  0mm
00:10 63.8 °F /  17.7 °C 57.5 °F /  14.2 °C 30.14in /  1020.5hPa SSE 2.0mph /  3.2km/h 3.0mph /  4.8km/h 80% 0.00in /  0mm
00:16 63.5 °F /  17.5 °C 57.6 °F /  14.2 °C 30.14in /  1020.5hPa SSE 2.0mph /  3.2km/h 4.0mph /  6.4km/h 81% 0.00in /  0mm
00:20 63.5 °F /  17.5 °C 57.9 °F /  14.4 °C 30.14in /  1020.5hPa SSE 2.0mph /  3.2km/h 3.0mph /  4.8km/h 82% 0.00in /  0mm
00:26 63.4 °F /  17.4 °C 57.8 °F /  14.3 °C 30.14in /  1020.5hPa SSE 1.0mph /  1.6km/h 2.0mph /  3.2km/h 82% 0.00in /  0mm
00:31 63.0 °F /  17.2 °C 57.4 °F /  14.1 °C 30.14in /  1020.5hPa SSE 1.0mph /  1.6km/h 2.0mph /  3.2km/h 82% 0.00in /  0mm
00:36 62.7 °F /  17.1 °C 57.5 °F /  14.2 °C 30.14in /  1020.5hPa SSE 2.0mph /  3.2km/h 2.0mph /  3.2km/h 83% 0.00in /  0mm
00:41 62.8 °F /  17.1 °C 57.9 °F /  14.4 °C 30.14in /  1020.5hPa South 2.0mph /  3.2km/h 2.0mph /  3.2km/h 84% 0.00in /  0mm
00:46 63.0 °F /  17.2 °C 58.1 °F /  14.5 °C 30.14in /  1020.5hPa SSE 2.0mph /  3.2km/h 2.0mph /  3.2km/h 84% 0.00in /  0mm
00:51 63.0 °F /  17.2 °C 58.1 °F /  14.5 °C 30.14in /  1020.5hPa South 2.0mph /  3.2km/h 3.0mph /  4.8km/h 84% 0.00in /  0mm
00:56 62.8 °F /  17.1 °C 57.9 °F /  14.4 °C 30.14in /  1020.5hPa SSE 2.0mph /  3.2km/h 3.0mph /  4.8km/h 84% 0.00in /  0mm
01:01 62.6 °F /  17 °C 57.7 °F /  14.3 °C 30.14in /  1020.5hPa SE 1.0mph /  1.6km/h 2.0mph /  3.2km/h 84% 0.00in /  0mm
01:06 62.2 °F /  16.8 °C 57.6 °F /  14.2 °C 30.14in /  1020.5hPa ESE 1.0mph /  1.6km/h 2.0mph /  3.2km/h 85% 0.00in /  0mm
01:11 61.6 °F /  16.4 °C 57.0 °F /  13.9 °C 30.14in /  1020.5hPa ESE 2.0mph /  3.2km/h 3.0mph /  4.8km/h 85% 0.00in /  0mm
01:16 61.0 °F /  16.1 °C 56.8 °F /  13.8 °C 30.14in /  1020.5hPa SE 1.0mph /  1.6km/h 2.0mph /  3.2km/h 86% 0.00in /  0mm
01:21 60.8 °F /  16 °C 56.9 °F /  13.8 °C 30.14in /  1020.5hPa ESE 2.0mph /  3.2km/h 2.0mph /  3.2km/h 87% 0.00in /  0mm
01:26 60.8 °F /  16 °C 56.9 °F /  13.8 °C 30.14in /  1020.5hPa Calm   2.0mph /  3.2km/h 87% 0.00in /  0mm
01:31 60.7 °F /  15.9 °C 57.1 °F /  13.9 °C 30.14in /  1020.5hPa Calm   2.0mph /  3.2km/h 88% 0.00in /  0mm
01:36 60.7 °F /  15.9 °C 57.1 °F /  13.9 °C 30.14in /  1020.5hPa Calm   2.0mph /  3.2km/h 88% 0.00in /  0mm
01:41 60.8 °F /  16 °C 57.2 °F /  14 °C 30.14in /  1020.5hPa SSE 1.0mph /  1.6km/h 1.0mph /  1.6km/h 88% 0.00in /  0mm
01:46 60.9 °F /  16.1 °C 57.6 °F /  14.2 °C 30.13in /  1020.2hPa SSE 1.0mph /  1.6km/h 1.0mph /  1.6km/h 89% 0.00in /  0mm
01:51 60.8 °F /  16 °C 57.2 °F /  14 °C 30.13in /  1020.2hPa Calm   2.0mph /  3.2km/h 88% 0.00in /  0mm
01:56 60.8 °F /  16 °C 57.5 °F /  14.2 °C 30.13in /  1020.2hPa SE 1.0mph /  1.6km/h 2.0mph /  3.2km/h 89% 0.00in /  0mm
02:01 60.6 °F /  15.9 °C 57.3 °F /  14.1 °C 30.13in /  1020.2hPa SE 1.0mph /  1.6km/h 2.0mph /  3.2km/h 89% 0.00in /  0mm
02:06 60.5 °F /  15.8 °C 57.2 °F /  14 °C 30.13in /  1020.2hPa SE 1.0mph /  1.6km/h 1.0mph /  1.6km/h 89% 0.00in /  0mm
02:11 60.4 °F /  15.8 °C 57.2 °F /  14 °C 30.13in /  1020.2hPa SE 1.0mph /  1.6km/h 1.0mph /  1.6km/h 89% 0.00in /  0mm
02:17 60.1 °F /  15.6 °C 56.8 °F /  13.8 °C 30.13in /  1020.2hPa SE 1.0mph /  1.6km/h 1.0mph /  1.6km/h 89% 0.00in /  0mm
02:22 60.0 °F /  15.6 °C 57.1 °F /  13.9 °C 30.13in /  1020.2hPa SSE 1.0mph /  1.6km/h 1.0mph /  1.6km/h 90% 0.00in /  0mm
02:27 60.1 °F /  15.6 °C 57.2 °F /  14 °C 30.13in /  1020.2hPa Calm   1.0mph /  1.6km/h 90% 0.00in /  0mm
02:32 60.1 °F /  15.6 °C 57.5 °F /  14.2 °C 30.13in /  1020.2hPa SE 1.0mph /  1.6km/h 1.0mph /  1.6km/h 91% 0.00in /  0mm
02:37 60.3 °F /  15.7 °C 57.7 °F /  14.3 °C 30.13in /  1020.2hPa Calm   1.0mph /  1.6km/h 91% 0.00in /  0mm
02:42 60.4 °F /  15.8 °C 57.8 °F /  14.3 °C 30.13in /  1020.2hPa SSE 1.0mph /  1.6km/h 1.0mph /  1.6km/h 91% 0.00in /  0mm
02:47 60.2 °F /  15.7 °C 57.6 °F /  14.2 °C 30.13in /  1020.2hPa Calm   1.0mph /  1.6km/h 91% 0.00in /  0mm
02:52 59.9 °F /  15.5 °C 57.3 °F /  14.1 °C 30.13in /  1020.2hPa SE 1.0mph /  1.6km/h 1.0mph /  1.6km/h 91% 0.00in /  0mm
02:57 59.9 °F /  15.5 °C 57.3 °F /  14.1 °C 30.13in /  1020.2hPa Calm   1.0mph /  1.6km/h 91% 0.00in /  0mm
03:02 59.9 °F /  15.5 °C 57.6 °F /  14.2 °C 30.13in /  1020.2hPa Calm   1.0mph /  1.6km/h 92% 0.00in /  0mm
03:07 59.5 °F /  15.3 °C 56.9 °F /  13.8 °C 30.13in /  1020.2hPa SE 1.0mph /  1.6km/h 2.0mph /  3.2km/h 91% 0.00in /  0mm
03:12 59.5 °F /  15.3 °C 57.2 °F /  14 °C 30.13in /  1020.2hPa ESE 2.0mph /  3.2km/h 2.0mph /  3.2km/h 92% 0.00in /  0mm
03:17 59.4 °F /  15.2 °C 57.1 °F /  13.9 °C 30.13in /  1020.2hPa ESE 1.0mph /  1.6km/h 2.0mph /  3.2km/h 92% 0.00in /  0mm
03:22 59.4 °F /  15.2 °C 57.1 °F /  13.9 °C 30.13in /  1020.2hPa East 1.0mph /  1.6km/h 2.0mph /  3.2km/h 92% 0.00in /  0mm
03:27 59.1 °F /  15.1 °C 56.8 °F /  13.8 °C 30.13in /  1020.2hPa East 1.0mph /  1.6km/h 2.0mph /  3.2km/h 92% 0.00in /  0mm
03:32 59.1 °F /  15.1 °C 57.1 °F /  13.9 °C 30.13in /  1020.2hPa East 1.0mph /  1.6km/h 2.0mph /  3.2km/h 93% 0.00in /  0mm
03:37 59.1 °F /  15.1 °C 57.1 °F /  13.9 °C 30.13in /  1020.2hPa East 1.0mph /  1.6km/h 1.0mph /  1.6km/h 93% 0.00in /  0mm
03:42 59.0 °F /  15 °C 57.0 °F /  13.9 °C 30.13in /  1020.2hPa East 2.0mph /  3.2km/h 2.0mph /  3.2km/h 93% 0.00in /  0mm
03:47 58.6 °F /  14.8 °C 56.3 °F /  13.5 °C 30.13in /  1020.2hPa East 2.0mph /  3.2km/h 2.0mph /  3.2km/h 92% 0.00in /  0mm
03:52 58.6 °F /  14.8 °C 56.6 °F /  13.7 °C 30.13in /  1020.2hPa ESE 1.0mph /  1.6km/h 2.0mph /  3.2km/h 93% 0.00in /  0mm
03:57 58.6 °F /  14.8 °C 56.6 °F /  13.7 °C 30.13in /  1020.2hPa East 1.0mph /  1.6km/h 2.0mph /  3.2km/h 93% 0.00in /  0mm
04:02 58.4 °F /  14.7 °C 56.4 °F /  13.6 °C 30.13in /  1020.2hPa East 1.0mph /  1.6km/h 1.0mph /  1.6km/h 93% 0.00in /  0mm
04:07 58.2 °F /  14.6 °C 56.2 °F /  13.4 °C 30.13in /  1020.2hPa East 1.0mph /  1.6km/h 1.0mph /  1.6km/h 93% 0.00in /  0mm
04:12 57.9 °F /  14.4 °C 55.9 °F /  13.3 °C 30.13in /  1020.2hPa East 1.0mph /  1.6km/h 1.0mph /  1.6km/h 93% 0.00in /  0mm
04:17 57.8 °F /  14.3 °C 56.1 °F /  13.4 °C 30.13in /  1020.2hPa East 1.0mph /  1.6km/h 1.0mph /  1.6km/h 94% 0.00in /  0mm
04:22 57.9 °F /  14.4 °C 56.2 °F /  13.4 °C 30.13in /  1020.2hPa Calm   1.0mph /  1.6km/h 94% 0.00in /  0mm
04:27 58.1 °F /  14.5 °C 56.4 °F /  13.6 °C 30.13in /  1020.2hPa East 1.0mph /  1.6km/h 1.0mph /  1.6km/h 94% 0.00in /  0mm
04:32 58.1 °F /  14.5 °C 56.4 °F /  13.6 °C 30.13in /  1020.2hPa East 1.0mph /  1.6km/h 1.0mph /  1.6km/h 94% 0.00in /  0mm
04:37 58.1 °F /  14.5 °C 56.4 °F /  13.6 °C 30.12in /  1019.9hPa East 1.0mph /  1.6km/h 2.0mph /  3.2km/h 94% 0.00in /  0mm
04:42 58.1 °F /  14.5 °C 56.4 °F /  13.6 °C 30.12in /  1019.9hPa Calm   1.0mph /  1.6km/h 94% 0.00in /  0mm
04:47 57.9 °F /  14.4 °C 56.2 °F /  13.4 °C 30.12in /  1019.9hPa East 1.0mph /  1.6km/h 1.0mph /  1.6km/h 94% 0.00in /  0mm
04:52 58.1 °F /  14.5 °C 56.4 °F /  13.6 °C 30.13in /  1020.2hPa East 2.0mph /  3.2km/h 2.0mph /  3.2km/h 94% 0.00in /  0mm
04:57 58.1 °F /  14.5 °C 56.4 °F /  13.6 °C 30.12in /  1019.9hPa Calm   1.0mph /  1.6km/h 94% 0.00in /  0mm
05:02 58.0 °F /  14.4 °C 56.3 °F /  13.5 °C 30.13in /  1020.2hPa ESE 1.0mph /  1.6km/h 1.0mph /  1.6km/h 94% 0.00in /  0mm
05:07 58.0 °F /  14.4 °C 56.3 °F /  13.5 °C 30.13in /  1020.2hPa ESE 1.0mph /  1.6km/h 1.0mph /  1.6km/h 94% 0.00in /  0mm
05:12 58.2 °F /  14.6 °C 56.8 °F /  13.8 °C 30.13in /  1020.2hPa ESE 1.0mph /  1.6km/h 2.0mph /  3.2km/h 95% 0.00in /  0mm
05:17 58.1 °F /  14.5 °C 56.4 °F /  13.6 °C 30.13in /  1020.2hPa Calm     94% 0.00in /  0mm
05:22 58.0 °F /  14.4 °C 56.3 °F /  13.5 °C 30.13in /  1020.2hPa Calm     94% 0.00in /  0mm
05:27 58.3 °F /  14.6 °C 56.9 °F /  13.8 °C 30.12in /  1019.9hPa Calm     95% 0.00in /  0mm
05:32 58.2 °F /  14.6 °C 56.8 °F /  13.8 °C 30.13in /  1020.2hPa Calm     95% 0.00in /  0mm
05:37 58.1 °F /  14.5 °C 56.7 °F /  13.7 °C 30.13in /  1020.2hPa Calm     95% 0.00in /  0mm
05:42 58.2 °F /  14.6 °C 56.8 °F /  13.8 °C 30.13in /  1020.2hPa Calm     95% 0.00in /  0mm
05:47 58.2 °F /  14.6 °C 56.8 °F /  13.8 °C 30.13in /  1020.2hPa Calm     95% 0.00in /  0mm
05:52 58.2 °F /  14.6 °C 56.8 °F /  13.8 °C 30.13in /  1020.2hPa Calm     95% 0.00in /  0mm
05:57 58.1 °F /  14.5 °C 56.7 °F /  13.7 °C 30.13in /  1020.2hPa Calm     95% 0.00in /  0mm
06:02 57.8 °F /  14.3 °C 56.4 °F /  13.6 °C 30.13in /  1020.2hPa Calm     95% 0.00in /  0mm
06:07 57.6 °F /  14.2 °C 56.2 °F /  13.4 °C 30.14in /  1020.5hPa Calm     95% 0.00in /  0mm
06:12 57.4 °F /  14.1 °C 56.0 °F /  13.3 °C 30.14in /  1020.5hPa Calm     95% 0.00in /  0mm
06:17 57.3 °F /  14.1 °C 55.9 °F /  13.3 °C 30.14in /  1020.5hPa Calm     95% 0.00in /  0mm
06:22 57.4 °F /  14.1 °C 56.0 °F /  13.3 °C 30.14in /  1020.5hPa Calm     95% 0.00in /  0mm
06:27 57.9 °F /  14.4 °C 56.5 °F /  13.6 °C 30.14in /  1020.5hPa Calm     95% 0.00in /  0mm
06:32 58.0 °F /  14.4 °C 56.6 °F /  13.7 °C 30.15in /  1020.9hPa Calm     95% 0.00in /  0mm
06:38 58.0 °F /  14.4 °C 56.6 °F /  13.7 °C 30.15in /  1020.9hPa East 1.0mph /  1.6km/h 1.0mph /  1.6km/h 95% 0.00in /  0mm
06:43 57.5 °F /  14.2 °C 56.1 °F /  13.4 °C 30.15in /  1020.9hPa ESE 2.0mph /  3.2km/h 3.0mph /  4.8km/h 95% 0.00in /  0mm
06:48 57.2 °F /  14 °C 55.8 °F /  13.2 °C 30.15in /  1020.9hPa ESE 1.0mph /  1.6km/h 1.0mph /  1.6km/h 95% 0.00in /  0mm
06:53 56.5 °F /  13.6 °C 55.1 °F /  12.8 °C 30.15in /  1020.9hPa ESE 1.0mph /  1.6km/h 1.0mph /  1.6km/h 95% 0.00in /  0mm
06:58 56.6 °F /  13.7 °C 55.2 °F /  12.9 °C 30.16in /  1021.2hPa Calm   1.0mph /  1.6km/h 95% 0.00in /  0mm
07:03 56.5 °F /  13.6 °C 55.1 °F /  12.8 °C 30.16in /  1021.2hPa Calm     95% 0.00in /  0mm
07:08 56.2 °F /  13.4 °C 54.8 °F /  12.7 °C 30.16in /  1021.2hPa Calm   1.0mph /  1.6km/h 95% 0.00in /  0mm
07:13 56.4 °F /  13.6 °C 55.0 °F /  12.8 °C 30.16in /  1021.2hPa Calm     95% 0.00in /  0mm
07:18 57.0 °F /  13.9 °C 55.6 °F /  13.1 °C 30.16in /  1021.2hPa ENE 1.0mph /  1.6km/h 1.0mph /  1.6km/h 95% 0.00in /  0mm
07:23 56.8 °F /  13.8 °C 55.4 °F /  13 °C 30.16in /  1021.2hPa East 1.0mph /  1.6km/h 2.0mph /  3.2km/h 95% 0.00in /  0mm
07:28 56.8 °F /  13.8 °C 55.4 °F /  13 °C 30.16in /  1021.2hPa Calm   1.0mph /  1.6km/h 95% 0.00in /  0mm
07:33 56.8 °F /  13.8 °C 55.4 °F /  13 °C 30.16in /  1021.2hPa Calm     95% 0.00in /  0mm
07:38 57.1 °F /  13.9 °C 55.7 °F /  13.2 °C 30.16in /  1021.2hPa Calm     95% 0.00in /  0mm
07:43 57.2 °F /  14 °C 55.8 °F /  13.2 °C 30.17in /  1021.6hPa East 1.0mph /  1.6km/h 1.0mph /  1.6km/h 95% 0.00in /  0mm
07:48 57.2 °F /  14 °C 55.8 °F /  13.2 °C 30.17in /  1021.6hPa ESE 2.0mph /  3.2km/h 2.0mph /  3.2km/h 95% 0.00in /  0mm
07:53 57.2 °F /  14 °C 55.8 °F /  13.2 °C 30.17in /  1021.6hPa ESE 3.0mph /  4.8km/h 3.0mph /  4.8km/h 95% 0.00in /  0mm
07:58 56.8 °F /  13.8 °C 55.4 °F /  13 °C 30.17in /  1021.6hPa Calm   2.0mph /  3.2km/h 95% 0.00in /  0mm
08:03 56.4 °F /  13.6 °C 55.0 °F /  12.8 °C 30.17in /  1021.6hPa ESE 1.0mph /  1.6km/h 2.0mph /  3.2km/h 95% 0.00in /  0mm
08:08 56.5 °F /  13.6 °C 55.1 °F /  12.8 °C 30.17in /  1021.6hPa ESE 2.0mph /  3.2km/h 3.0mph /  4.8km/h 95% 0.00in /  0mm
08:13 56.5 °F /  13.6 °C 55.1 °F /  12.8 °C 30.17in /  1021.6hPa ESE 2.0mph /  3.2km/h 2.0mph /  3.2km/h 95% 0.00in /  0mm
08:18 56.4 °F /  13.6 °C 55.0 °F /  12.8 °C 30.17in /  1021.6hPa East 2.0mph /  3.2km/h 2.0mph /  3.2km/h 95% 0.00in /  0mm
08:23 56.5 °F /  13.6 °C 55.1 °F /  12.8 °C 30.17in /  1021.6hPa ESE 2.0mph /  3.2km/h 3.0mph /  4.8km/h 95% 0.00in /  0mm
08:28 56.3 °F /  13.5 °C 54.9 °F /  12.7 °C 30.18in /  1021.9hPa East 2.0mph /  3.2km/h 2.0mph /  3.2km/h 95% 0.00in /  0mm
08:33 56.3 °F /  13.5 °C 54.9 °F /  12.7 °C 30.18in /  1021.9hPa East 1.0mph /  1.6km/h 2.0mph /  3.2km/h 95% 0.00in /  0mm
08:38 56.6 °F /  13.7 °C 55.2 °F /  12.9 °C 30.18in /  1021.9hPa ESE 2.0mph /  3.2km/h 2.0mph /  3.2km/h 95% 0.00in /  0mm
08:43 57.0 °F /  13.9 °C 55.6 °F /  13.1 °C 30.18in /  1021.9hPa East 3.0mph /  4.8km/h 4.0mph /  6.4km/h 95% 0.00in /  0mm
08:48 57.5 °F /  14.2 °C 56.1 °F /  13.4 °C 30.18in /  1021.9hPa ESE 3.0mph /  4.8km/h 4.0mph /  6.4km/h 95% 0.00in /  0mm
08:53 58.0 °F /  14.4 °C 56.6 °F /  13.7 °C 30.18in /  1021.9hPa East 4.0mph /  6.4km/h 4.0mph /  6.4km/h 95% 0.00in /  0mm
08:58 58.4 °F /  14.7 °C 57.0 °F /  13.9 °C 30.18in /  1021.9hPa ESE 3.0mph /  4.8km/h 4.0mph /  6.4km/h 95% 0.00in /  0mm
09:03 59.0 °F /  15 °C 57.6 °F /  14.2 °C 30.19in /  1022.2hPa ESE 4.0mph /  6.4km/h 4.0mph /  6.4km/h 95% 0.00in /  0mm
09:08 59.6 °F /  15.3 °C 58.2 °F /  14.6 °C 30.19in /  1022.2hPa ESE 2.0mph /  3.2km/h 4.0mph /  6.4km/h 95% 0.00in /  0mm
09:13 60.1 °F /  15.6 °C 58.7 °F /  14.8 °C 30.19in /  1022.2hPa East 2.0mph /  3.2km/h 3.0mph /  4.8km/h 95% 0.00in /  0mm
09:18 60.6 °F /  15.9 °C 59.2 °F /  15.1 °C 30.19in /  1022.2hPa ESE 4.0mph /  6.4km/h 4.0mph /  6.4km/h 95% 0.00in /  0mm
09:23 61.0 °F /  16.1 °C 59.6 °F /  15.3 °C 30.19in /  1022.2hPa ESE 3.0mph /  4.8km/h 5.0mph /  8km/h 95% 0.00in /  0mm
09:28 61.1 °F /  16.2 °C 59.4 °F /  15.2 °C 30.20in /  1022.6hPa ESE 4.0mph /  6.4km/h 6.0mph /  9.7km/h 94% 0.00in /  0mm
09:33 61.7 °F /  16.5 °C 60.0 °F /  15.6 °C 30.20in /  1022.6hPa ESE 4.0mph /  6.4km/h 4.0mph /  6.4km/h 94% 0.00in /  0mm
09:38 62.0 °F /  16.7 °C 60.3 °F /  15.7 °C 30.20in /  1022.6hPa ESE 3.0mph /  4.8km/h 4.0mph /  6.4km/h 94% 0.00in /  0mm
09:43 62.3 °F /  16.8 °C 60.2 °F /  15.7 °C 30.20in /  1022.6hPa ESE 4.0mph /  6.4km/h 4.0mph /  6.4km/h 93% 0.00in /  0mm
09:48 62.9 °F /  17.2 °C 60.8 °F /  16 °C 30.20in /  1022.6hPa ESE 3.0mph /  4.8km/h 4.0mph /  6.4km/h 93% 0.00in /  0mm
09:53 63.4 °F /  17.4 °C 61.3 °F /  16.3 °C 30.21in /  1022.9hPa SE 3.0mph /  4.8km/h 3.0mph /  4.8km/h 93% 0.00in /  0mm
09:58 63.7 °F /  17.6 °C 61.3 °F /  16.3 °C 30.21in /  1022.9hPa ESE 3.0mph /  4.8km/h 4.0mph /  6.4km/h 92% 0.00in /  0mm
10:03 63.7 °F /  17.6 °C 61.3 °F /  16.3 °C 30.21in /  1022.9hPa SE 2.0mph /  3.2km/h 3.0mph /  4.8km/h 92% 0.00in /  0mm
10:08 64.4 °F /  18 °C 62.0 °F /  16.7 °C 30.21in /  1022.9hPa SE 3.0mph /  4.8km/h 4.0mph /  6.4km/h 92% 0.00in /  0mm
10:13 65.2 °F /  18.4 °C 62.5 °F /  16.9 °C 30.21in /  1022.9hPa SE 4.0mph /  6.4km/h 6.0mph /  9.7km/h 91% 0.00in /  0mm
10:18 65.1 °F /  18.4 °C 62.1 °F /  16.7 °C 30.21in /  1022.9hPa SSE 3.0mph /  4.8km/h 4.0mph /  6.4km/h 90% 0.00in /  0mm
10:23 65.8 °F /  18.8 °C 63.1 °F /  17.3 °C 30.21in /  1022.9hPa SSE 4.0mph /  6.4km/h 5.0mph /  8km/h 91% 0.00in /  0mm
10:28 66.6 °F /  19.2 °C 63.3 °F /  17.4 °C 30.21in /  1022.9hPa SE 5.0mph /  8km/h 6.0mph /  9.7km/h 89% 0.00in /  0mm
10:33 67.2 °F /  19.6 °C 63.8 °F /  17.7 °C 30.21in /  1022.9hPa SSE 4.0mph /  6.4km/h 5.0mph /  8km/h 89% 0.00in /  0mm
10:39 67.7 °F /  19.8 °C 64.0 °F /  17.8 °C 30.21in /  1022.9hPa SE 7.0mph /  11.3km/h 7.0mph /  11.3km/h 88% 0.00in /  0mm
10:44 67.7 °F /  19.8 °C 63.4 °F /  17.4 °C 30.21in /  1022.9hPa SE 4.0mph /  6.4km/h 6.0mph /  9.7km/h 86% 0.00in /  0mm
10:49 67.9 °F /  19.9 °C 64.2 °F /  17.9 °C 30.21in /  1022.9hPa SE 6.0mph /  9.7km/h 6.0mph /  9.7km/h 88% 0.00in /  0mm
10:54 68.4 °F /  20.2 °C 64.4 °F /  18 °C 30.21in /  1022.9hPa SSE 4.0mph /  6.4km/h 5.0mph /  8km/h 87% 0.00in /  0mm
10:59 69.2 °F /  20.7 °C 64.5 °F /  18.1 °C 30.21in /  1022.9hPa SSW 5.0mph /  8km/h 5.0mph /  8km/h 85% 0.00in /  0mm
11:04 69.6 °F /  20.9 °C 64.6 °F /  18.1 °C 30.21in /  1022.9hPa SSW 3.0mph /  4.8km/h 7.0mph /  11.3km/h 84% 0.00in /  0mm
11:09 69.8 °F /  21 °C 64.4 °F /  18 °C 30.21in /  1022.9hPa South 2.0mph /  3.2km/h 6.0mph /  9.7km/h 83% 0.00in /  0mm
11:14 70.0 °F /  21.1 °C 64.6 °F /  18.1 °C 30.22in /  1023.2hPa SSW 3.0mph /  4.8km/h 5.0mph /  8km/h 83% 0.00in /  0mm
11:19 70.3 °F /  21.3 °C 64.6 °F /  18.1 °C 30.22in /  1023.2hPa SE 7.0mph /  11.3km/h 7.0mph /  11.3km/h 82% 0.00in /  0mm
11:24 70.4 °F /  21.3 °C 65.0 °F /  18.3 °C 30.22in /  1023.2hPa SSE 4.0mph /  6.4km/h 5.0mph /  8km/h 83% 0.00in /  0mm
11:29 70.7 °F /  21.5 °C 64.6 °F /  18.1 °C 30.22in /  1023.2hPa SSE 4.0mph /  6.4km/h 5.0mph /  8km/h 81% 0.00in /  0mm
11:34 70.9 °F /  21.6 °C 64.8 °F /  18.2 °C 30.22in /  1023.2hPa SW 4.0mph /  6.4km/h 5.0mph /  8km/h 81% 0.00in /  0mm
11:39 71.0 °F /  21.7 °C 65.2 °F /  18.4 °C 30.22in /  1023.2hPa SSE 3.0mph /  4.8km/h 7.0mph /  11.3km/h 82% 0.00in /  0mm
11:44 71.4 °F /  21.9 °C 65.3 °F /  18.5 °C 30.21in /  1022.9hPa SE 3.0mph /  4.8km/h 5.0mph /  8km/h 81% 0.00in /  0mm
11:49 71.8 °F /  22.1 °C 65.3 °F /  18.5 °C 30.21in /  1022.9hPa SSW 5.0mph /  8km/h 5.0mph /  8km/h 80% 0.00in /  0mm
11:54 72.2 °F /  22.3 °C 65.7 °F /  18.7 °C 30.21in /  1022.9hPa South 4.0mph /  6.4km/h 5.0mph /  8km/h 80% 0.00in /  0mm
11:59 72.7 °F /  22.6 °C 65.1 °F /  18.4 °C 30.21in /  1022.9hPa SSW 5.0mph /  8km/h 6.0mph /  9.7km/h 77% 0.00in /  0mm
12:04 73.3 °F /  22.9 °C 65.7 °F /  18.7 °C 30.21in /  1022.9hPa SSE 2.0mph /  3.2km/h 8.0mph /  12.9km/h 77% 0.00in /  0mm
12:09 73.5 °F /  23.1 °C 65.5 °F /  18.6 °C 30.21in /  1022.9hPa SSW 3.0mph /  4.8km/h 7.0mph /  11.3km/h 76% 0.00in /  0mm
12:14 73.9 °F /  23.3 °C 65.5 °F /  18.6 °C 30.21in /  1022.9hPa SSE 5.0mph /  8km/h 7.0mph /  11.3km/h 75% 0.00in /  0mm
12:19 74.6 °F /  23.7 °C 65.4 °F /  18.6 °C 30.21in /  1022.9hPa SW 4.0mph /  6.4km/h 5.0mph /  8km/h 73% 0.00in /  0mm
12:24 75.0 °F /  23.9 °C 66.2 °F /  19 °C 30.20in /  1022.6hPa SW 4.0mph /  6.4km/h 8.0mph /  12.9km/h 74% 0.00in /  0mm
12:29 75.3 °F /  24.1 °C 65.3 °F /  18.5 °C 30.20in /  1022.6hPa SSW 5.0mph /  8km/h 8.0mph /  12.9km/h 71% 0.00in /  0mm
12:34 75.4 °F /  24.1 °C 64.9 °F /  18.3 °C 30.20in /  1022.6hPa SSE 2.0mph /  3.2km/h 6.0mph /  9.7km/h 70% 0.00in /  0mm
12:39 75.6 °F /  24.2 °C 65.5 °F /  18.6 °C 30.20in /  1022.6hPa SW 7.0mph /  11.3km/h 8.0mph /  12.9km/h 71% 0.00in /  0mm
12:45 75.8 °F /  24.3 °C 64.9 °F /  18.3 °C 30.20in /  1022.6hPa SW 2.0mph /  3.2km/h 5.0mph /  8km/h 69% 0.00in /  0mm
12:50 76.0 °F /  24.4 °C 64.7 °F /  18.2 °C 30.20in /  1022.6hPa SSE 7.0mph /  11.3km/h 9.0mph /  14.5km/h 68% 0.00in /  0mm
12:55 76.0 °F /  24.4 °C 65.5 °F /  18.6 °C 30.20in /  1022.6hPa South 5.0mph /  8km/h 9.0mph /  14.5km/h 70% 0.00in /  0mm
13:00 76.4 °F /  24.7 °C 65.9 °F /  18.8 °C 30.20in /  1022.6hPa SSW 9.0mph /  14.5km/h 9.0mph /  14.5km/h 70% 0.00in /  0mm
13:05 76.6 °F /  24.8 °C 64.4 °F /  18 °C 30.20in /  1022.6hPa SW 5.0mph /  8km/h 7.0mph /  11.3km/h 66% 0.00in /  0mm
13:10 76.6 °F /  24.8 °C 65.3 °F /  18.5 °C 30.19in /  1022.2hPa WSW 4.0mph /  6.4km/h 7.0mph /  11.3km/h 68% 0.00in /  0mm
13:15 77.4 °F /  25.2 °C 66.4 °F /  19.1 °C 30.19in /  1022.2hPa South 4.0mph /  6.4km/h 4.0mph /  6.4km/h 69% 0.00in /  0mm
13:20 77.9 °F /  25.5 °C 65.6 °F /  18.7 °C 30.19in /  1022.2hPa SW 5.0mph /  8km/h 10.0mph /  16.1km/h 66% 0.00in /  0mm
13:25 78.0 °F /  25.6 °C 64.8 °F /  18.2 °C 30.19in /  1022.2hPa SW 8.0mph /  12.9km/h 8.0mph /  12.9km/h 64% 0.00in /  0mm
13:30 77.7 °F /  25.4 °C 64.6 °F /  18.1 °C 30.19in /  1022.2hPa WSW 2.0mph /  3.2km/h 7.0mph /  11.3km/h 64% 0.00in /  0mm
13:35 77.7 °F /  25.4 °C 65.0 °F /  18.3 °C 30.19in /  1022.2hPa SSE 5.0mph /  8km/h 9.0mph /  14.5km/h 65% 0.00in /  0mm
13:40 77.1 °F /  25.1 °C 64.4 °F /  18 °C 30.18in /  1021.9hPa SSE 6.0mph /  9.7km/h 8.0mph /  12.9km/h 65% 0.00in /  0mm
13:45 77.0 °F /  25 °C 64.8 °F /  18.2 °C 30.18in /  1021.9hPa SSW 3.0mph /  4.8km/h 8.0mph /  12.9km/h 66% 0.00in /  0mm
13:46 77.0 °F /  25 °C 64.8 °F /  18.2 °C 30.18in /  1021.9hPa SSW 3.0mph /  4.8km/h 8.0mph /  12.9km/h 66% 0.00in /  0mm
13:51 77.3 °F /  25.2 °C 64.2 °F /  17.9 °C 30.18in /  1021.9hPa SSE 2.0mph /  3.2km/h 10.0mph /  16.1km/h 64% 0.00in /  0mm
13:56 77.1 °F /  25.1 °C 64.9 °F /  18.3 °C 30.18in /  1021.9hPa SSE 5.0mph /  8km/h 7.0mph /  11.3km/h 66% 0.00in /  0mm
14:01 76.8 °F /  24.9 °C 64.2 °F /  17.9 °C 30.17in /  1021.6hPa South 4.0mph /  6.4km/h 6.0mph /  9.7km/h 65% 0.00in /  0mm
14:06 76.5 °F /  24.7 °C 64.7 °F /  18.2 °C 30.17in /  1021.6hPa SSE 1.0mph /  1.6km/h 4.0mph /  6.4km/h 67% 0.00in /  0mm
14:11 76.6 °F /  24.8 °C 64.8 °F /  18.2 °C 30.17in /  1021.6hPa Calm   1.0mph /  1.6km/h 67% 0.00in /  0mm
14:16 77.3 °F /  25.2 °C 65.1 °F /  18.4 °C 30.17in /  1021.6hPa WSW 5.0mph /  8km/h 5.0mph /  8km/h 66% 0.00in /  0mm
14:21 78.1 °F /  25.6 °C 64.5 °F /  18.1 °C 30.16in /  1021.2hPa WSW 3.0mph /  4.8km/h 5.0mph /  8km/h 63% 0.00in /  0mm
14:26 78.9 °F /  26.1 °C 65.7 °F /  18.7 °C 30.16in /  1021.2hPa WSW 3.0mph /  4.8km/h 4.0mph /  6.4km/h 64% 0.00in /  0mm
14:31 79.0 °F /  26.1 °C 63.9 °F /  17.7 °C 30.15in /  1020.9hPa SSE 8.0mph /  12.9km/h 9.0mph /  14.5km/h 60% 0.00in /  0mm
14:36 79.4 °F /  26.3 °C 63.8 °F /  17.7 °C 30.15in /  1020.9hPa SE 3.0mph /  4.8km/h 7.0mph /  11.3km/h 59% 0.00in /  0mm
14:41 79.3 °F /  26.3 °C 64.2 °F /  17.9 °C 30.15in /  1020.9hPa South 4.0mph /  6.4km/h 9.0mph /  14.5km/h 60% 0.00in /  0mm
14:46 78.9 °F /  26.1 °C 62.9 °F /  17.2 °C 30.15in /  1020.9hPa SE 7.0mph /  11.3km/h 7.0mph /  11.3km/h 58% 0.00in /  0mm
14:51 78.6 °F /  25.9 °C 62.6 °F /  17 °C 30.15in /  1020.9hPa SSE 5.0mph /  8km/h 6.0mph /  9.7km/h 58% 0.00in /  0mm
14:56 78.2 °F /  25.7 °C 64.1 °F /  17.8 °C 30.15in /  1020.9hPa SE 5.0mph /  8km/h 8.0mph /  12.9km/h 62% 0.00in /  0mm
15:01 78.1 °F /  25.6 °C 62.6 °F /  17 °C 30.14in /  1020.5hPa SW 7.0mph /  11.3km/h 8.0mph /  12.9km/h 59% 0.00in /  0mm
15:06 78.5 °F /  25.8 °C 62.0 °F /  16.7 °C 30.14in /  1020.5hPa WSW 7.0mph /  11.3km/h 7.0mph /  11.3km/h 57% 0.00in /  0mm
15:11 78.8 °F /  26 °C 62.8 °F /  17.1 °C 30.13in /  1020.2hPa SSW 3.0mph /  4.8km/h 10.0mph /  16.1km/h 58% 0.00in /  0mm
15:16 79.0 °F /  26.1 °C 63.0 °F /  17.2 °C 30.13in /  1020.2hPa SSE 4.0mph /  6.4km/h 8.0mph /  12.9km/h 58% 0.00in /  0mm
15:21 78.8 °F /  26 °C 62.8 °F /  17.1 °C 30.13in /  1020.2hPa SW 10.0mph /  16.1km/h 10.0mph /  16.1km/h 58% 0.00in /  0mm
15:26 78.4 °F /  25.8 °C 63.4 °F /  17.4 °C 30.13in /  1020.2hPa SSE 10.0mph /  16.1km/h 12.0mph /  19.3km/h 60% 0.00in /  0mm
15:31 78.7 °F /  25.9 °C 62.2 °F /  16.8 °C 30.12in /  1019.9hPa SE 6.0mph /  9.7km/h 9.0mph /  14.5km/h 57% 0.00in /  0mm
15:36 79.5 °F /  26.4 °C 63.9 °F /  17.7 °C 30.12in /  1019.9hPa SSW 3.0mph /  4.8km/h 6.0mph /  9.7km/h 59% 0.00in /  0mm
15:41 80.2 °F /  26.8 °C 61.5 °F /  16.4 °C 30.11in /  1019.5hPa South 6.0mph /  9.7km/h 11.0mph /  17.7km/h 53% 0.00in /  0mm
15:46 80.6 °F /  27 °C 64.5 °F /  18.1 °C 30.11in /  1019.5hPa SSE 10.0mph /  16.1km/h 10.0mph /  16.1km/h 58% 0.00in /  0mm
15:51 80.5 °F /  26.9 °C 63.9 °F /  17.7 °C 30.11in /  1019.5hPa SSE 3.0mph /  4.8km/h 16.0mph /  25.7km/h 57% 0.00in /  0mm
15:56 80.5 °F /  26.9 °C 63.9 °F /  17.7 °C 30.11in /  1019.5hPa SE 10.0mph /  16.1km/h 14.0mph /  22.5km/h 57% 0.00in /  0mm
16:01 80.2 °F /  26.8 °C 62.6 °F /  17 °C 30.12in /  1019.9hPa SE 9.0mph /  14.5km/h 13.0mph /  20.9km/h 55% 0.00in /  0mm
16:06 79.7 °F /  26.5 °C 62.6 °F /  17 °C 30.11in /  1019.5hPa SE 6.0mph /  9.7km/h 11.0mph /  17.7km/h 56% 0.00in /  0mm
16:12 79.0 °F /  26.1 °C 63.0 °F /  17.2 °C 30.11in /  1019.5hPa SSE 8.0mph /  12.9km/h 12.0mph /  19.3km/h 58% 0.00in /  0mm
16:17 78.4 °F /  25.8 °C 62.9 °F /  17.2 °C 30.11in /  1019.5hPa SSE 6.0mph /  9.7km/h 7.0mph /  11.3km/h 59% 0.00in /  0mm
16:22 78.0 °F /  25.6 °C 63.5 °F /  17.5 °C 30.11in /  1019.5hPa SSE 7.0mph /  11.3km/h 10.0mph /  16.1km/h 61% 0.00in /  0mm
16:27 77.6 °F /  25.3 °C 63.1 °F /  17.3 °C 30.11in /  1019.5hPa SE 8.0mph /  12.9km/h 12.0mph /  19.3km/h 61% 0.00in /  0mm
16:32 77.5 °F /  25.3 °C 63.5 °F /  17.5 °C 30.11in /  1019.5hPa SSW 5.0mph /  8km/h 8.0mph /  12.9km/h 62% 0.00in /  0mm
16:37 77.7 °F /  25.4 °C 63.7 °F /  17.6 °C 30.11in /  1019.5hPa SSE 4.0mph /  6.4km/h 9.0mph /  14.5km/h 62% 0.00in /  0mm
16:42 78.7 °F /  25.9 °C 63.7 °F /  17.6 °C 30.11in /  1019.5hPa SSW 7.0mph /  11.3km/h 8.0mph /  12.9km/h 60% 0.00in /  0mm
16:47 79.1 °F /  26.2 °C 64.0 °F /  17.8 °C 30.11in /  1019.5hPa WSW 6.0mph /  9.7km/h 9.0mph /  14.5km/h 60% 0.00in /  0mm
16:52 78.7 °F /  25.9 °C 63.2 °F /  17.3 °C 30.11in /  1019.5hPa SW 6.0mph /  9.7km/h 8.0mph /  12.9km/h 59% 0.00in /  0mm
16:57 78.1 °F /  25.6 °C 63.1 °F /  17.3 °C 30.11in /  1019.5hPa SW 6.0mph /  9.7km/h 9.0mph /  14.5km/h 60% 0.00in /  0mm
17:02 77.6 °F /  25.3 °C 63.1 °F /  17.3 °C 30.11in /  1019.5hPa SW 7.0mph /  11.3km/h 8.0mph /  12.9km/h 61% 0.00in /  0mm
17:07 77.2 °F /  25.1 °C 63.2 °F /  17.3 °C 30.12in /  1019.9hPa West 6.0mph /  9.7km/h 6.0mph /  9.7km/h 62% 0.00in /  0mm
17:12 76.0 °F /  24.4 °C 64.3 °F /  17.9 °C 30.12in /  1019.9hPa SW 2.0mph /  3.2km/h 10.0mph /  16.1km/h 67% 0.00in /  0mm
17:17 74.7 °F /  23.7 °C 64.7 °F /  18.2 °C 30.12in /  1019.9hPa WSW 2.0mph /  3.2km/h 5.0mph /  8km/h 71% 0.09in /  2.29mm
17:22 74.0 °F /  23.3 °C 64.4 °F /  18 °C 30.12in /  1019.9hPa SE 1.0mph /  1.6km/h 2.0mph /  3.2km/h 72% 0.12in /  3.05mm
17:27 73.7 °F /  23.2 °C 65.7 °F /  18.7 °C 30.12in /  1019.9hPa ESE 1.0mph /  1.6km/h 1.0mph /  1.6km/h 76% 0.11in /  2.79mm
17:32 73.5 °F /  23.1 °C 65.5 °F /  18.6 °C 30.12in /  1019.9hPa East 2.0mph /  3.2km/h 2.0mph /  3.2km/h 76% 0.10in /  2.54mm
17:37 73.5 °F /  23.1 °C 66.6 °F /  19.2 °C 30.12in /  1019.9hPa ESE 4.0mph /  6.4km/h 4.0mph /  6.4km/h 79% 0.05in /  1.27mm
17:42 73.3 °F /  22.9 °C 65.7 °F /  18.7 °C 30.11in /  1019.5hPa SE 3.0mph /  4.8km/h 4.0mph /  6.4km/h 77% 0.04in /  1.02mm
17:47 73.5 °F /  23.1 °C 65.5 °F /  18.6 °C 30.11in /  1019.5hPa SE 5.0mph /  8km/h 5.0mph /  8km/h 76% 0.00in /  0mm
17:52 73.5 °F /  23.1 °C 65.5 °F /  18.6 °C 30.11in /  1019.5hPa SE 3.0mph /  4.8km/h 5.0mph /  8km/h 76% 0.00in /  0mm
17:57 73.6 °F /  23.1 °C 65.6 °F /  18.7 °C 30.10in /  1019.2hPa SE 6.0mph /  9.7km/h 7.0mph /  11.3km/h 76% 0.00in /  0mm
18:02 73.5 °F /  23.1 °C 65.5 °F /  18.6 °C 30.10in /  1019.2hPa SE 4.0mph /  6.4km/h 7.0mph /  11.3km/h 76% 0.00in /  0mm
18:08 73.4 °F /  23 °C 65.4 °F /  18.6 °C 30.10in /  1019.2hPa SSE 3.0mph /  4.8km/h 5.0mph /  8km/h 76% 0.00in /  0mm
18:13 73.3 °F /  22.9 °C 64.9 °F /  18.3 °C 30.10in /  1019.2hPa SSE 6.0mph /  9.7km/h 10.0mph /  16.1km/h 75% 0.00in /  0mm
18:18 73.2 °F /  22.9 °C 64.4 °F /  18 °C 30.10in /  1019.2hPa SSE 7.0mph /  11.3km/h 9.0mph /  14.5km/h 74% 0.00in /  0mm
18:23 73.1 °F /  22.8 °C 63.9 °F /  17.7 °C 30.09in /  1018.8hPa SE 6.0mph /  9.7km/h 9.0mph /  14.5km/h 73% 0.00in /  0mm
18:28 72.8 °F /  22.7 °C 63.7 °F /  17.6 °C 30.09in /  1018.8hPa SE 6.0mph /  9.7km/h 10.0mph /  16.1km/h 73% 0.00in /  0mm
18:33 72.6 °F /  22.6 °C 63.5 °F /  17.5 °C 30.09in /  1018.8hPa SE 7.0mph /  11.3km/h 8.0mph /  12.9km/h 73% 0.00in /  0mm
18:38 72.5 °F /  22.5 °C 63.4 °F /  17.4 °C 30.10in /  1019.2hPa ESE 4.0mph /  6.4km/h 6.0mph /  9.7km/h 73% 0.00in /  0mm
18:43 72.4 °F /  22.4 °C 63.7 °F /  17.6 °C 30.10in /  1019.2hPa ESE 4.0mph /  6.4km/h 7.0mph /  11.3km/h 74% 0.00in /  0mm
18:48 72.3 °F /  22.4 °C 63.2 °F /  17.3 °C 30.11in /  1019.5hPa SSE 2.0mph /  3.2km/h 5.0mph /  8km/h 73% 0.00in /  0mm
18:53 72.4 °F /  22.4 °C 63.3 °F /  17.4 °C 30.12in /  1019.9hPa South 2.0mph /  3.2km/h 4.0mph /  6.4km/h 73% 0.00in /  0mm
18:58 72.4 °F /  22.4 °C 63.3 °F /  17.4 °C 30.12in /  1019.9hPa South 3.0mph /  4.8km/h 5.0mph /  8km/h 73% 0.00in /  0mm
19:03 72.6 °F /  22.6 °C 63.5 °F /  17.5 °C 30.13in /  1020.2hPa SSW 2.0mph /  3.2km/h 5.0mph /  8km/h 73% 0.00in /  0mm
19:08 72.8 °F /  22.7 °C 63.7 °F /  17.6 °C 30.13in /  1020.2hPa SE 2.0mph /  3.2km/h 5.0mph /  8km/h 73% 0.00in /  0mm
19:13 73.2 °F /  22.9 °C 64.4 °F /  18 °C 30.12in /  1019.9hPa SE 3.0mph /  4.8km/h 5.0mph /  8km/h 74% 0.00in /  0mm
19:18 73.5 °F /  23.1 °C 64.7 °F /  18.2 °C 30.12in /  1019.9hPa SE 4.0mph /  6.4km/h 5.0mph /  8km/h 74% 0.00in /  0mm
19:23 73.6 °F /  23.1 °C 64.4 °F /  18 °C 30.12in /  1019.9hPa SE 2.0mph /  3.2km/h 3.0mph /  4.8km/h 73% 0.00in /  0mm
19:28 73.8 °F /  23.2 °C 64.6 °F /  18.1 °C 30.12in /  1019.9hPa East 3.0mph /  4.8km/h 3.0mph /  4.8km/h 73% 0.00in /  0mm
19:33 73.6 °F /  23.1 °C 64.0 °F /  17.8 °C 30.12in /  1019.9hPa ESE 3.0mph /  4.8km/h 5.0mph /  8km/h 72% 0.00in /  0mm
19:38 72.9 °F /  22.7 °C 64.5 °F /  18.1 °C 30.12in /  1019.9hPa ESE 4.0mph /  6.4km/h 4.0mph /  6.4km/h 75% 0.00in /  0mm
19:43 72.6 °F /  22.6 °C 64.2 °F /  17.9 °C 30.12in /  1019.9hPa ESE 2.0mph /  3.2km/h 5.0mph /  8km/h 75% 0.00in /  0mm
19:48 72.2 °F /  22.3 °C 64.2 °F /  17.9 °C 30.13in /  1020.2hPa ESE 2.0mph /  3.2km/h 2.0mph /  3.2km/h 76% 0.00in /  0mm
19:53 71.9 °F /  22.2 °C 63.9 °F /  17.7 °C 30.13in /  1020.2hPa SE 1.0mph /  1.6km/h 3.0mph /  4.8km/h 76% 0.00in /  0mm
19:58 71.8 °F /  22.1 °C 63.8 °F /  17.7 °C 30.13in /  1020.2hPa SE 3.0mph /  4.8km/h 3.0mph /  4.8km/h 76% 0.00in /  0mm
20:03 71.6 °F /  22 °C 63.3 °F /  17.4 °C 30.13in /  1020.2hPa SE 4.0mph /  6.4km/h 4.0mph /  6.4km/h 75% 0.00in /  0mm
20:08 71.3 °F /  21.8 °C 63.3 °F /  17.4 °C 30.13in /  1020.2hPa SE 3.0mph /  4.8km/h 4.0mph /  6.4km/h 76% 0.00in /  0mm
20:13 70.8 °F /  21.6 °C 63.2 °F /  17.3 °C 30.13in /  1020.2hPa SE 2.0mph /  3.2km/h 4.0mph /  6.4km/h 77% 0.00in /  0mm
20:18 70.4 °F /  21.3 °C 62.8 °F /  17.1 °C 30.13in /  1020.2hPa ESE 2.0mph /  3.2km/h 3.0mph /  4.8km/h 77% 0.00in /  0mm
20:23 70.5 °F /  21.4 °C 63.0 °F /  17.2 °C 30.13in /  1020.2hPa SE 3.0mph /  4.8km/h 4.0mph /  6.4km/h 77% 0.00in /  0mm
20:28 70.3 °F /  21.3 °C 63.1 °F /  17.3 °C 30.13in /  1020.2hPa ESE 3.0mph /  4.8km/h 4.0mph /  6.4km/h 78% 0.00in /  0mm
20:33 69.8 °F /  21 °C 62.6 °F /  17 °C 30.13in /  1020.2hPa ESE 4.0mph /  6.4km/h 5.0mph /  8km/h 78% 0.00in /  0mm
20:39 69.3 °F /  20.7 °C 62.2 °F /  16.8 °C 30.13in /  1020.2hPa SE 3.0mph /  4.8km/h 5.0mph /  8km/h 78% 0.00in /  0mm
20:44 69.0 °F /  20.6 °C 61.9 °F /  16.6 °C 30.13in /  1020.2hPa SE 3.0mph /  4.8km/h 5.0mph /  8km/h 78% 0.00in /  0mm
20:49 69.0 °F /  20.6 °C 61.1 °F /  16.2 °C 30.13in /  1020.2hPa SE 4.0mph /  6.4km/h 4.0mph /  6.4km/h 76% 0.00in /  0mm
20:54 69.0 °F /  20.6 °C 60.8 °F /  16 °C 30.13in /  1020.2hPa ESE 4.0mph /  6.4km/h 6.0mph /  9.7km/h 75% 0.00in /  0mm
20:59 68.9 °F /  20.5 °C 60.3 °F /  15.7 °C 30.12in /  1019.9hPa ESE 3.0mph /  4.8km/h 7.0mph /  11.3km/h 74% 0.00in /  0mm
21:04 68.8 °F /  20.4 °C 60.2 °F /  15.7 °C 30.12in /  1019.9hPa SE 4.0mph /  6.4km/h 4.0mph /  6.4km/h 74% 0.00in /  0mm
21:09 68.7 °F /  20.4 °C 60.1 °F /  15.6 °C 30.12in /  1019.9hPa SE 3.0mph /  4.8km/h 4.0mph /  6.4km/h 74% 0.00in /  0mm
21:14 68.3 °F /  20.2 °C 59.7 °F /  15.4 °C 30.12in /  1019.9hPa SE 3.0mph /  4.8km/h 5.0mph /  8km/h 74% 0.00in /  0mm
21:19 68.2 °F /  20.1 °C 60.0 °F /  15.6 °C 30.13in /  1020.2hPa SE 3.0mph /  4.8km/h 5.0mph /  8km/h 75% 0.00in /  0mm
21:24 68.1 °F /  20.1 °C 59.9 °F /  15.5 °C 30.13in /  1020.2hPa ESE 3.0mph /  4.8km/h 4.0mph /  6.4km/h 75% 0.00in /  0mm
21:29 68.1 °F /  20.1 °C 59.9 °F /  15.5 °C 30.13in /  1020.2hPa ESE 2.0mph /  3.2km/h 3.0mph /  4.8km/h 75% 0.00in /  0mm
21:34 68.1 °F /  20.1 °C 59.9 °F /  15.5 °C 30.13in /  1020.2hPa ESE 3.0mph /  4.8km/h 4.0mph /  6.4km/h 75% 0.00in /  0mm
21:39 67.9 °F /  19.9 °C 60.1 °F /  15.6 °C 30.13in /  1020.2hPa SE 3.0mph /  4.8km/h 3.0mph /  4.8km/h 76% 0.00in /  0mm
21:44 67.4 °F /  19.7 °C 60.0 °F /  15.6 °C 30.13in /  1020.2hPa SE 2.0mph /  3.2km/h 3.0mph /  4.8km/h 77% 0.00in /  0mm
21:49 66.4 °F /  19.1 °C 60.0 °F /  15.6 °C 30.14in /  1020.5hPa SSE 4.0mph /  6.4km/h 4.0mph /  6.4km/h 80% 0.00in /  0mm
21:54 66.3 °F /  19.1 °C 60.3 °F /  15.7 °C 30.14in /  1020.5hPa SE 6.0mph /  9.7km/h 6.0mph /  9.7km/h 81% 0.00in /  0mm
21:59 66.5 °F /  19.2 °C 60.8 °F /  16 °C 30.14in /  1020.5hPa South 6.0mph /  9.7km/h 6.0mph /  9.7km/h 82% 0.00in /  0mm
22:04 66.9 °F /  19.4 °C 60.9 °F /  16.1 °C 30.14in /  1020.5hPa SSE 7.0mph /  11.3km/h 7.0mph /  11.3km/h 81% 0.00in /  0mm
22:09 66.9 °F /  19.4 °C 60.9 °F /  16.1 °C 30.14in /  1020.5hPa SSE 1.0mph /  1.6km/h 6.0mph /  9.7km/h 81% 0.00in /  0mm
22:14 66.6 °F /  19.2 °C 60.6 °F /  15.9 °C 30.14in /  1020.5hPa South 3.0mph /  4.8km/h 3.0mph /  4.8km/h 81% 0.00in /  0mm
22:19 66.3 °F /  19.1 °C 60.7 °F /  15.9 °C 30.15in /  1020.9hPa SSE 3.0mph /  4.8km/h 5.0mph /  8km/h 82% 0.00in /  0mm
22:24 66.4 °F /  19.1 °C 61.1 °F /  16.2 °C 30.14in /  1020.5hPa SE 3.0mph /  4.8km/h 6.0mph /  9.7km/h 83% 0.00in /  0mm
22:29 66.3 °F /  19.1 °C 61.0 °F /  16.1 °C 30.14in /  1020.5hPa South 4.0mph /  6.4km/h 5.0mph /  8km/h 83% 0.00in /  0mm
22:35 66.0 °F /  18.9 °C 60.7 °F /  15.9 °C 30.14in /  1020.5hPa SSE 5.0mph /  8km/h 7.0mph /  11.3km/h 83% 0.00in /  0mm
22:40 66.0 °F /  18.9 °C 61.0 °F /  16.1 °C 30.15in /  1020.9hPa SE 4.0mph /  6.4km/h 6.0mph /  9.7km/h 84% 0.00in /  0mm
22:45 66.0 °F /  18.9 °C 61.0 °F /  16.1 °C 30.15in /  1020.9hPa South 4.0mph /  6.4km/h 6.0mph /  9.7km/h 84% 0.00in /  0mm
22:50 65.8 °F /  18.8 °C 61.2 °F /  16.2 °C 30.15in /  1020.9hPa SSE 4.0mph /  6.4km/h 5.0mph /  8km/h 85% 0.00in /  0mm
22:55 65.7 °F /  18.7 °C 61.1 °F /  16.2 °C 30.15in /  1020.9hPa SSE 3.0mph /  4.8km/h 6.0mph /  9.7km/h 85% 0.00in /  0mm
23:00 65.7 °F /  18.7 °C 61.1 °F /  16.2 °C 30.15in /  1020.9hPa SSE 2.0mph /  3.2km/h 5.0mph /  8km/h 85% 0.00in /  0mm
23:05 65.8 °F /  18.8 °C 61.2 °F /  16.2 °C 30.15in /  1020.9hPa SSW 2.0mph /  3.2km/h 4.0mph /  6.4km/h 85% 0.00in /  0mm
23:10 65.8 °F /  18.8 °C 61.5 °F /  16.4 °C 30.15in /  1020.9hPa SSE 4.0mph /  6.4km/h 4.0mph /  6.4km/h 86% 0.00in /  0mm
23:15 66.0 °F /  18.9 °C 61.7 °F /  16.5 °C 30.15in /  1020.9hPa South 2.0mph /  3.2km/h 5.0mph /  8km/h 86% 0.00in /  0mm
23:20 66.2 °F /  19 °C 61.9 °F /  16.6 °C 30.15in /  1020.9hPa SSW 5.0mph /  8km/h 5.0mph /  8km/h 86% 0.00in /  0mm
23:25 66.5 °F /  19.2 °C 62.2 °F /  16.8 °C 30.15in /  1020.9hPa South 4.0mph /  6.4km/h 8.0mph /  12.9km/h 86% 0.00in /  0mm
23:30 66.6 °F /  19.2 °C 62.6 °F /  17 °C 30.15in /  1020.9hPa SSW 3.0mph /  4.8km/h 5.0mph /  8km/h 87% 0.00in /  0mm
23:35 66.6 °F /  19.2 °C 62.6 °F /  17 °C 30.15in /  1020.9hPa South 4.0mph /  6.4km/h 7.0mph /  11.3km/h 87% 0.00in /  0mm
23:40 66.7 °F /  19.3 °C 62.7 °F /  17.1 °C 30.15in /  1020.9hPa South 2.0mph /  3.2km/h 5.0mph /  8km/h 87% 0.00in /  0mm
23:45 66.6 °F /  19.2 °C 62.6 °F /  17 °C 30.16in /  1021.2hPa SSW 4.0mph /  6.4km/h 6.0mph /  9.7km/h 87% 0.00in /  0mm
23:46 66.6 °F /  19.2 °C 62.6 °F /  17 °C 30.16in /  1021.2hPa South 3.0mph /  4.8km/h 5.0mph /  8km/h 87% 0.00in /  0mm
23:51 66.5 °F /  19.2 °C 62.5 °F /  16.9 °C 30.16in /  1021.2hPa SSE 2.0mph /  3.2km/h 6.0mph /  9.7km/h 87% 0.00in /  0mm
23:56 66.1 °F /  18.9 °C 62.5 °F /  16.9 °C 30.16in /  1021.2hPa SSE 5.0mph /  8km/h 5.0mph /  8km/h 88% 0.00in /  0mm
Compliments of Weather Underground